THY3LU LTFM-LIBD
Flight info
| Callsign | THY3LU |
|---|---|
| Flight time | N/A |
| Altitude | 36000 |
| Route | BARPE1D/35L BARPE UM603 GOLDO DCT PINDO DCT PAPIZ P92 KAPPO L612 DOLON |
| Aircraft | A321/M-SDE3FGHIRWY/LB1 |
Departure
| Time | N/A |
|---|---|
| Airport | İstanbul Airport (LTFM) |
Arrival
| Time | 2026-05-03 21:50 |
|---|---|
| Airport | Bari Karol Wojtyła International Airport (LIBD) |
| Time | Latitude | Longitude | Altitude | Speed | Heading |
|---|---|---|---|---|---|
| 2026-05-03 21:29 | 40.73263 | 18.54036 | 34009 ft | 458 kts | 257° |
| 2026-05-03 21:29 | 40.72348 | 18.50027 | 33467 ft | 455 kts | 257° |
| 2026-05-03 21:29 | 40.71452 | 18.46036 | 32916 ft | 453 kts | 257° |
| 2026-05-03 21:29 | 40.70577 | 18.42115 | 32381 ft | 451 kts | 257° |
| 2026-05-03 21:30 | 40.69696 | 18.38159 | 31835 ft | 449 kts | 257° |
| 2026-05-03 21:30 | 40.68813 | 18.34221 | 31288 ft | 447 kts | 257° |
| 2026-05-03 21:30 | 40.67928 | 18.30308 | 30754 ft | 444 kts | 257° |
| 2026-05-03 21:30 | 40.67046 | 18.26425 | 30214 ft | 441 kts | 257° |
| 2026-05-03 21:31 | 40.66168 | 18.22565 | 29682 ft | 438 kts | 257° |
| 2026-05-03 21:31 | 40.65295 | 18.18735 | 29153 ft | 435 kts | 257° |
| 2026-05-03 21:31 | 40.64428 | 18.14928 | 28630 ft | 432 kts | 257° |
| 2026-05-03 21:31 | 40.63566 | 18.11151 | 28112 ft | 429 kts | 257° |
| 2026-05-03 21:32 | 40.62841 | 18.07380 | 27600 ft | 421 kts | 265° |
| 2026-05-03 21:32 | 40.62711 | 18.03585 | 27130 ft | 410 kts | 278° |
| 2026-05-03 21:32 | 40.63191 | 17.99939 | 26696 ft | 400 kts | 290° |
| 2026-05-03 21:32 | 40.64200 | 17.96582 | 26266 ft | 390 kts | 301° |
| 2026-05-03 21:33 | 40.65669 | 17.93629 | 25856 ft | 382 kts | 312° |
| 2026-05-03 21:33 | 40.67400 | 17.91070 | 25464 ft | 377 kts | 314° |
| 2026-05-03 21:33 | 40.69150 | 17.88517 | 25069 ft | 374 kts | 314° |
| 2026-05-03 21:33 | 40.70882 | 17.85980 | 24681 ft | 371 kts | 314° |
| 2026-05-03 21:34 | 40.72594 | 17.83465 | 24289 ft | 367 kts | 314° |
| 2026-05-03 21:34 | 40.74292 | 17.80975 | 23907 ft | 363 kts | 314° |
| 2026-05-03 21:34 | 40.75971 | 17.78507 | 23518 ft | 360 kts | 314° |
| 2026-05-03 21:34 | 40.77637 | 17.76063 | 23135 ft | 356 kts | 314° |
| 2026-05-03 21:35 | 40.78728 | 17.74461 | 22876 ft | 354 kts | 314° |
| 2026-05-03 21:35 | 40.80363 | 17.72057 | 22484 ft | 350 kts | 314° |
| 2026-05-03 21:35 | 40.81976 | 17.69680 | 22096 ft | 346 kts | 314° |
| 2026-05-03 21:35 | 40.83577 | 17.67324 | 21709 ft | 343 kts | 314° |
| 2026-05-03 21:36 | 40.85160 | 17.64992 | 21324 ft | 339 kts | 314° |
| 2026-05-03 21:36 | 40.86728 | 17.62679 | 20934 ft | 336 kts | 314° |
| 2026-05-03 21:36 | 40.88238 | 17.60335 | 20536 ft | 334 kts | 308° |
| 2026-05-03 21:36 | 40.89411 | 17.57684 | 20105 ft | 335 kts | 296° |
| 2026-05-03 21:37 | 40.90252 | 17.54811 | 19669 ft | 335 kts | 293° |
| 2026-05-03 21:37 | 40.91067 | 17.51929 | 19223 ft | 334 kts | 294° |
| 2026-05-03 21:37 | 40.92135 | 17.49222 | 18377 ft | 333 kts | 311° |
| 2026-05-03 21:37 | 40.93822 | 17.47174 | 17569 ft | 327 kts | 331° |
| 2026-05-03 21:38 | 40.95842 | 17.45952 | 16850 ft | 315 kts | 340° |
| 2026-05-03 21:38 | 40.97876 | 17.44908 | 16035 ft | 311 kts | 340° |
| 2026-05-03 21:38 | 40.99857 | 17.43895 | 15209 ft | 308 kts | 340° |
| 2026-05-03 21:38 | 41.01846 | 17.42884 | 14378 ft | 305 kts | 340° |
| 2026-05-03 21:39 | 41.03813 | 17.41887 | 13558 ft | 301 kts | 340° |
| 2026-05-03 21:39 | 41.05759 | 17.40898 | 12740 ft | 298 kts | 340° |
| 2026-05-03 21:39 | 41.07687 | 17.39914 | 11940 ft | 295 kts | 340° |
| 2026-05-03 21:39 | 41.09591 | 17.38947 | 11267 ft | 289 kts | 340° |
| 2026-05-03 21:40 | 41.11479 | 17.37985 | 11044 ft | 293 kts | 340° |
| 2026-05-03 21:40 | 41.13333 | 17.37036 | 10795 ft | 278 kts | 340° |
| 2026-05-03 21:40 | 41.15119 | 17.36117 | 10474 ft | 275 kts | 340° |
| 2026-05-03 21:40 | 41.16933 | 17.35186 | 9836 ft | 279 kts | 340° |
| 2026-05-03 21:41 | 41.18709 | 17.34300 | 9426 ft | 268 kts | 340° |
| 2026-05-03 21:41 | 41.20442 | 17.33458 | 9042 ft | 262 kts | 340° |
| 2026-05-03 21:41 | 41.22134 | 17.32641 | 8678 ft | 256 kts | 340° |
| 2026-05-03 21:41 | 41.23785 | 17.31844 | 8327 ft | 249 kts | 340° |
| 2026-05-03 21:42 | 41.25368 | 17.31035 | 7984 ft | 246 kts | 332° |
| 2026-05-03 21:42 | 41.26606 | 17.29526 | 7646 ft | 245 kts | 299° |
| 2026-05-03 21:42 | 41.27010 | 17.27353 | 7296 ft | 246 kts | 266° |
| 2026-05-03 21:42 | 41.26491 | 17.25209 | 6973 ft | 244 kts | 244° |
| 2026-05-03 21:43 | 41.25813 | 17.23148 | 6600 ft | 242 kts | 250° |
| 2026-05-03 21:43 | 41.25243 | 17.21057 | 6251 ft | 240 kts | 252° |
| 2026-05-03 21:43 | 41.24701 | 17.18976 | 5914 ft | 237 kts | 252° |
| 2026-05-03 21:43 | 41.24167 | 17.16930 | 5617 ft | 232 kts | 251° |
| 2026-05-03 21:44 | 41.23632 | 17.14920 | 5255 ft | 231 kts | 251° |
| 2026-05-03 21:44 | 41.23091 | 17.12915 | 4895 ft | 230 kts | 251° |
| 2026-05-03 21:44 | 41.22549 | 17.10938 | 4586 ft | 226 kts | 250° |
| 2026-05-03 21:44 | 41.22011 | 17.08990 | 4289 ft | 223 kts | 250° |
| 2026-05-03 21:45 | 41.21498 | 17.07083 | 4048 ft | 221 kts | 255° |
| 2026-05-03 21:45 | 41.21182 | 17.05083 | 3752 ft | 223 kts | 259° |
| 2026-05-03 21:45 | 41.20878 | 17.03057 | 3349 ft | 222 kts | 259° |
| 2026-05-03 21:45 | 41.20579 | 17.01100 | 2949 ft | 210 kts | 259° |
| 2026-05-03 21:46 | 41.20297 | 16.99250 | 2608 ft | 200 kts | 258° |
| 2026-05-03 21:46 | 41.19893 | 16.97524 | 2394 ft | 188 kts | 249° |
| 2026-05-03 21:46 | 41.19453 | 16.95975 | 2337 ft | 174 kts | 249° |
| 2026-05-03 21:46 | 41.19039 | 16.94497 | 2271 ft | 168 kts | 249° |
| 2026-05-03 21:47 | 41.18635 | 16.93051 | 2194 ft | 166 kts | 249° |
| 2026-05-03 21:47 | 41.18230 | 16.91617 | 2106 ft | 165 kts | 249° |
| 2026-05-03 21:47 | 41.17836 | 16.90210 | 2044 ft | 164 kts | 250° |
| 2026-05-03 21:47 | 41.17439 | 16.88799 | 1977 ft | 162 kts | 249° |
| 2026-05-03 21:48 | 41.17047 | 16.87394 | 1787 ft | 161 kts | 250° |
| 2026-05-03 21:48 | 41.16666 | 16.86041 | 1560 ft | 155 kts | 249° |
| 2026-05-03 21:48 | 41.16292 | 16.84716 | 1304 ft | 152 kts | 249° |
| 2026-05-03 21:48 | 41.15924 | 16.83408 | 1086 ft | 151 kts | 249° |
| 2026-05-03 21:49 | 41.15557 | 16.82108 | 878 ft | 150 kts | 249° |
| 2026-05-03 21:49 | 41.15191 | 16.80812 | 664 ft | 150 kts | 249° |
| 2026-05-03 21:49 | 41.14829 | 16.79518 | 449 ft | 149 kts | 249° |
| 2026-05-03 21:49 | 41.14473 | 16.78245 | 248 ft | 149 kts | 248° |
| 2026-05-03 21:50 | 41.14110 | 16.76971 | 133 ft | 141 kts | 249° |
| 2026-05-03 21:50 | 41.13817 | 16.75935 | 137 ft | 86 kts | 249° |
| 2026-05-03 21:50 | 41.13677 | 16.75442 | 140 ft | 48 kts | 249° |
| 2026-05-03 21:50 | 41.13565 | 16.75045 | 137 ft | 44 kts | 249° |
| 2026-05-03 21:51 | 41.13495 | 16.74804 | 139 ft | 17 kts | 247° |
| 2026-05-03 21:51 | 41.13448 | 16.74737 | 141 ft | 8 kts | 192° |
| 2026-05-03 21:51 | 41.13412 | 16.74750 | 144 ft | 4 kts | 149° |
| 2026-05-03 21:51 | 41.13384 | 16.74796 | 146 ft | 7 kts | 123° |
| 2026-05-03 21:52 | 41.13358 | 16.74850 | 147 ft | 7 kts | 121° |
| 2026-05-03 21:52 | 41.13346 | 16.74918 | 148 ft | 9 kts | 88° |
| 2026-05-03 21:52 | 41.13365 | 16.75007 | 148 ft | 11 kts | 69° |
| 2026-05-03 21:52 | 41.13392 | 16.75101 | 147 ft | 12 kts | 69° |
| 2026-05-03 21:53 | 41.13427 | 16.75225 | 143 ft | 17 kts | 69° |
| 2026-05-03 21:53 | 41.13466 | 16.75362 | 142 ft | 12 kts | 69° |
| 2026-05-03 21:53 | 41.13495 | 16.75465 | 143 ft | 12 kts | 69° |
| 2026-05-03 21:53 | 41.13530 | 16.75588 | 138 ft | 17 kts | 69° |
| 2026-05-03 21:54 | 41.13574 | 16.75741 | 138 ft | 16 kts | 69° |
| 2026-05-03 21:54 | 41.13595 | 16.75815 | 138 ft | 8 kts | 69° |
| 2026-05-03 21:54 | 41.13624 | 16.75917 | 136 ft | 11 kts | 69° |
| 2026-05-03 21:54 | 41.13661 | 16.76047 | 136 ft | 17 kts | 70° |
| 2026-05-03 21:55 | 41.13702 | 16.76193 | 136 ft | 15 kts | 69° |
| 2026-05-03 21:55 | 41.13741 | 16.76331 | 135 ft | 17 kts | 69° |
| 2026-05-03 21:55 | 41.13778 | 16.76461 | 134 ft | 9 kts | 69° |
| 2026-05-03 21:55 | 41.13777 | 16.76544 | 136 ft | 9 kts | 126° |
| 2026-05-03 21:56 | 41.13720 | 16.76557 | 136 ft | 9 kts | 193° |
| 2026-05-03 21:56 | 41.13660 | 16.76516 | 136 ft | 10 kts | 222° |
| 2026-05-03 21:56 | 41.13627 | 16.76426 | 136 ft | 12 kts | 249° |
| 2026-05-03 21:56 | 41.13602 | 16.76374 | 136 ft | 5 kts | 196° |
| 2026-05-03 21:57 | 41.13567 | 16.76387 | 136 ft | 6 kts | 159° |
| 2026-05-03 21:57 | 41.13546 | 16.76397 | 136 ft | 3 kts | 159° |
| 2026-05-03 21:57 | 41.13541 | 16.76400 | 136 ft | 0 kts | 159° |